Terminal Aerodrome Forecast
Issued by NWS

Home | Current Version | Previous Version | Text Only | Print | Product List | Glossary On
Versions: 1 2 3 4 5 6 7 8 9 10 11 12 13 14 15 16 17 18 19 20 21 22 23 24 25 26 27 28 29
000
FTUS45 KBOI 250520
TAFMYL
TAF
KMYL 250520Z 2506/2606 VRB03KT P6SM OVC009
     FM250900 VRB03KT 2SM -SHSN BR BKN008 OVC015
     FM252000 30010KT 5SM -RA BR SCT015 OVC025
     FM260200 32005KT P6SM -SHRA SCT030 BKN050=

USA.gov is the U.S. government's official web portal to all federal, state and local government web resources and services.